createdAt,value
2023-03-07T00:02:00.495Z,97608.17
2023-03-07T00:05:14.963Z,97608.50
2023-03-07T00:08:27.100Z,97606.73
2023-03-07T00:11:39.396Z,97604.12
2023-03-07T00:14:51.405Z,97606.73
2023-03-07T00:18:03.842Z,97607.57
2023-03-07T00:21:18.717Z,97606.61
2023-03-07T00:24:31.236Z,97608.84
2023-03-07T00:27:43.481Z,97600.05
2023-03-07T00:30:55.922Z,97602.26
2023-03-07T00:34:09.021Z,97601.22
2023-03-07T00:37:21.459Z,97589.20
2023-03-07T00:40:33.582Z,97586.94
2023-03-07T00:43:47.232Z,97589.75
2023-03-07T00:46:59.530Z,97589.26
2023-03-07T00:50:13.952Z,97585.19
2023-03-07T00:53:26.934Z,97578.52
2023-03-07T00:56:39.094Z,97574.88
2023-03-07T00:59:51.339Z,97579.49
2023-03-07T01:03:04.329Z,97578.53
2023-03-07T01:06:21.053Z,97575.81
2023-03-07T01:09:33.154Z,97568.52
2023-03-07T01:12:45.370Z,97565.29
2023-03-07T01:15:57.789Z,97565.30
2023-03-07T01:19:14.096Z,97561.97
2023-03-07T01:22:26.679Z,97558.52
2023-03-07T01:25:44.071Z,97561.97
2023-03-07T01:28:58.644Z,97546.44
2023-03-07T01:32:11.733Z,97554.37
2023-03-07T01:35:24.517Z,97549.88
2023-03-07T01:38:38.464Z,97555.71
2023-03-07T01:41:52.554Z,97546.61
2023-03-07T01:45:11.836Z,97541.39
2023-03-07T01:48:33.662Z,97539.39
2023-03-07T01:51:49.548Z,97536.35
2023-03-07T01:55:06.534Z,97535.60
2023-03-07T01:58:21.231Z,97533.39
2023-03-07T02:01:34.723Z,97527.83
2023-03-07T02:04:51.445Z,97523.61
2023-03-07T02:08:06.666Z,97528.67
2023-03-07T02:11:20.014Z,97525.41
2023-03-07T02:14:32.187Z,97521.86
2023-03-07T02:17:46.354Z,97529.38
2023-03-07T02:21:03.571Z,97528.62
2023-03-07T02:24:23.119Z,97529.55
2023-03-07T02:27:39.343Z,97528.26
2023-03-07T02:31:04.517Z,97537.92
2023-03-07T02:34:31.311Z,97539.63
2023-03-07T02:37:56.085Z,97543.08
2023-03-07T02:41:08.853Z,97540.55
2023-03-07T02:44:21.317Z,97540.55
2023-03-07T02:47:34.138Z,97535.74
2023-03-07T02:50:46.918Z,97531.13
2023-03-07T02:53:59.365Z,97536.23
2023-03-07T02:57:12.092Z,97531.98
2023-03-07T03:00:26.513Z,97537.92
2023-03-07T03:03:39.268Z,97534.03
2023-03-07T03:06:51.427Z,97528.20
2023-03-07T03:10:03.487Z,97526.32
2023-03-07T03:13:16.499Z,97522.75
2023-03-07T03:16:28.831Z,97524.32
2023-03-07T03:19:41.842Z,97532.27
2023-03-07T03:22:57.527Z,97529.05
2023-03-07T03:26:14.337Z,97525.71
2023-03-07T03:29:26.862Z,97526.95
2023-03-07T03:32:43.877Z,97525.62
2023-03-07T03:35:56.117Z,97525.13
2023-03-07T03:39:10.575Z,97528.58
2023-03-07T03:42:24.599Z,97528.78
2023-03-07T03:45:36.650Z,97525.13
2023-03-07T03:48:48.893Z,97526.78
2023-03-07T03:52:01.101Z,97532.64
2023-03-07T03:55:15.358Z,97531.56
2023-03-07T03:58:27.569Z,97536.47
2023-03-07T04:01:39.860Z,97531.74
2023-03-07T04:04:53.102Z,97533.20
2023-03-07T04:08:05.756Z,97532.99
2023-03-07T04:11:18.836Z,97528.61
2023-03-07T04:14:31.713Z,97535.05
2023-03-07T04:17:44.282Z,97528.78
2023-03-07T04:20:58.109Z,97527.62
2023-03-07T04:24:11.139Z,97535.94
2023-03-07T04:27:23.461Z,97530.39
2023-03-07T04:30:35.574Z,97531.72
2023-03-07T04:33:49.675Z,97527.10
2023-03-07T04:37:02.100Z,97528.55
2023-03-07T04:40:17.755Z,97521.23
2023-03-07T04:43:30.326Z,97527.78
2023-03-07T04:46:42.542Z,97524.47
2023-03-07T04:49:54.638Z,97519.31
2023-03-07T04:53:07.674Z,97522.33
2023-03-07T04:56:20.895Z,97517.03
2023-03-07T04:59:33.102Z,97514.20
2023-03-07T05:02:46.745Z,97514.45
2023-03-07T05:05:59.455Z,97515.88
2023-03-07T05:09:11.784Z,97513.73
2023-03-07T05:12:24.905Z,97512.33
2023-03-07T05:15:37.900Z,97515.53
2023-03-07T05:18:50.847Z,97518.02
2023-03-07T05:22:03.619Z,97518.02
2023-03-07T05:25:17.352Z,97514.22
2023-03-07T05:28:29.792Z,97517.20
2023-03-07T05:31:42.133Z,97515.03
2023-03-07T05:34:54.753Z,97514.10
2023-03-07T05:38:08.278Z,97516.37
2023-03-07T05:41:21.516Z,97516.82
2023-03-07T05:44:34.339Z,97510.39
2023-03-07T05:47:47.775Z,97520.61
2023-03-07T05:51:00.106Z,97513.24
2023-03-07T05:54:12.798Z,97512.98
2023-03-07T05:57:25.216Z,97512.63
2023-03-07T06:00:37.720Z,97513.92
2023-03-07T06:03:49.869Z,97506.55
2023-03-07T06:07:02.250Z,97508.68
2023-03-07T06:10:18.117Z,97516.27
2023-03-07T06:13:31.745Z,97514.36
2023-03-07T06:16:43.997Z,97510.55
2023-03-07T06:19:56.701Z,97503.39
2023-03-07T06:23:11.397Z,97503.73
2023-03-07T06:26:24.495Z,97508.62
2023-03-07T06:29:38.185Z,97513.80
2023-03-07T06:32:50.441Z,97507.20
2023-03-07T06:36:03.007Z,97507.70
2023-03-07T06:39:17.294Z,97509.45
2023-03-07T06:42:29.539Z,97512.05
2023-03-07T06:45:43.017Z,97486.28
2023-03-07T06:48:56.529Z,97513.81
2023-03-07T06:52:09.519Z,97512.63
2023-03-07T06:55:22.343Z,97503.16
2023-03-07T06:58:36.083Z,97508.63
2023-03-07T07:01:49.340Z,97508.11
2023-03-07T07:05:03.306Z,97502.33
2023-03-07T07:08:15.726Z,97502.18
2023-03-07T07:11:28.403Z,97503.58
2023-03-07T07:17:42.234Z,97496.20
2023-03-07T07:21:00.834Z,97491.13
2023-03-07T07:24:17.991Z,97494.72
2023-03-07T07:27:31.329Z,97494.73
2023-03-07T07:33:46.605Z,97469.08
2023-03-07T07:37:02.373Z,97479.19
2023-03-07T07:40:17.831Z,97474.86
2023-03-07T07:49:32.264Z,97472.78
2023-03-07T07:52:45.147Z,97474.33
2023-03-07T07:55:57.581Z,97479.91
2023-03-07T07:59:10.312Z,97478.77
2023-03-07T08:02:22.791Z,97477.48
2023-03-07T08:05:35.105Z,97472.62
2023-03-07T08:08:48.347Z,97477.35
2023-03-07T08:12:00.579Z,97474.19
2023-03-07T08:15:17.059Z,97471.91
2023-03-07T08:18:29.347Z,97463.13
2023-03-07T08:21:41.420Z,97459.78
2023-03-07T08:24:53.800Z,97459.70
2023-03-07T08:28:06.106Z,97456.59
2023-03-07T08:31:20.710Z,97457.94
2023-03-07T08:34:33.527Z,97462.48
2023-03-07T08:37:45.604Z,97459.17
2023-03-07T08:40:58.361Z,97450.75
2023-03-07T08:44:10.831Z,97450.43
2023-03-07T08:47:22.983Z,97445.53
2023-03-07T08:50:36.256Z,97445.25
2023-03-07T08:53:49.082Z,97448.47
2023-03-07T08:57:01.292Z,97447.79
2023-03-07T09:00:17.925Z,97446.48
2023-03-07T09:03:30.417Z,97438.69
2023-03-07T09:06:42.373Z,97437.61
2023-03-07T09:09:54.717Z,97445.20
2023-03-07T09:13:07.343Z,97439.46
2023-03-07T09:16:19.553Z,97446.44
2023-03-07T09:19:32.083Z,97444.47
2023-03-07T09:22:44.253Z,97441.05
2023-03-07T09:28:56.483Z,97432.83
2023-03-07T09:32:10.612Z,97429.58
2023-03-07T09:35:23.203Z,97419.01
2023-03-07T09:38:35.226Z,97424.45
2023-03-07T09:42:21.362Z,97418.27
2023-03-07T09:46:00.720Z,97410.52
2023-03-07T09:49:30.060Z,97404.66
2023-03-07T09:52:46.110Z,97407.58
2023-03-07T09:56:00.841Z,97400.74
2023-03-07T09:59:23.941Z,97400.08
2023-03-07T10:02:41.126Z,97398.44
2023-03-07T10:05:56.955Z,97398.27
2023-03-07T10:09:11.950Z,97391.71
2023-03-07T10:12:52.607Z,97389.64
2023-03-07T10:16:10.538Z,97394.72
2023-03-07T10:19:32.482Z,97379.63
2023-03-07T10:22:50.712Z,97384.69
2023-03-07T10:26:09.467Z,97394.25
2023-03-07T10:29:26.649Z,97397.17
2023-03-07T10:32:43.750Z,97383.97
2023-03-07T10:36:01.571Z,97383.08
2023-03-07T10:39:27.860Z,97378.69
2023-03-07T10:42:43.001Z,97366.84
2023-03-07T10:45:54.940Z,97365.16
2023-03-07T10:49:17.954Z,97349.70
2023-03-07T10:52:42.860Z,97347.69
2023-03-07T10:55:56.823Z,97351.00
2023-03-07T10:59:14.672Z,97346.61
2023-03-07T11:02:48.864Z,97350.66
2023-03-07T11:06:01.978Z,97343.42
2023-03-07T11:09:33.672Z,97340.20
2023-03-07T11:12:51.772Z,97330.66
2023-03-07T11:16:25.938Z,97327.92
2023-03-07T11:19:47.937Z,97322.64
2023-03-07T11:23:23.519Z,97329.67
2023-03-07T11:26:44.541Z,97318.09
2023-03-07T11:30:25.246Z,97320.84
2023-03-07T11:33:59.052Z,97312.03
2023-03-07T11:37:24.113Z,97306.07
2023-03-07T11:40:43.502Z,97297.80
2023-03-07T11:44:10.030Z,97291.17
2023-03-07T11:47:37.318Z,97295.35
2023-03-07T11:50:57.376Z,97291.30
2023-03-07T11:54:19.572Z,97286.22
2023-03-07T11:57:42.183Z,97283.62
2023-03-07T12:01:09.841Z,97276.48
2023-03-07T12:05:18.072Z,97274.55
2023-03-07T12:08:44.827Z,97278.96
2023-03-07T12:12:16.060Z,97281.47
2023-03-07T12:15:40.100Z,97273.71
2023-03-07T12:19:08.850Z,97271.57
2023-03-07T12:22:34.516Z,97266.82
2023-03-07T12:25:49.519Z,97271.98
2023-03-07T12:29:06.184Z,97262.58
2023-03-07T12:32:24.393Z,97272.98
2023-03-07T12:35:45.942Z,97280.55
2023-03-07T12:39:03.556Z,97260.73
2023-03-07T12:42:22.355Z,97263.65
2023-03-07T12:45:38.788Z,97254.11
2023-03-07T12:48:57.922Z,97252.12
2023-03-07T12:52:17.251Z,97261.04
2023-03-07T12:55:34.278Z,97259.53
2023-03-07T12:58:51.817Z,97260.73
2023-03-07T13:02:08.809Z,97254.11
2023-03-07T13:05:27.864Z,97259.34
2023-03-07T13:08:40.668Z,97252.92
2023-03-07T13:12:43.488Z,97256.11
2023-03-07T13:16:11.398Z,97249.14
2023-03-07T13:20:00.759Z,97253.78
2023-03-07T13:23:31.554Z,97242.28
2023-03-07T13:26:44.024Z,97238.62
2023-03-07T13:30:25.635Z,97233.81
2023-03-07T13:33:37.849Z,97232.84
2023-03-07T13:36:50.231Z,97230.03
2023-03-07T13:40:10.512Z,97223.78
2023-03-07T13:44:00.102Z,97225.45
2023-03-07T13:47:31.395Z,97212.07
2023-03-07T13:51:12.389Z,97213.88
2023-03-07T13:54:26.280Z,97207.60
2023-03-07T13:57:45.347Z,97210.56
2023-03-07T14:01:04.480Z,97212.88
2023-03-07T14:04:37.105Z,97214.80
2023-03-07T14:07:41.325Z,97207.22
2023-03-07T14:10:54.813Z,97206.53
2023-03-07T14:14:42.723Z,97212.98
2023-03-07T14:18:10.465Z,97196.47
2023-03-07T14:21:31.687Z,97187.22
2023-03-07T14:25:04.989Z,97193.33
2023-03-07T14:28:30.123Z,97192.50
2023-03-07T14:31:47.815Z,97181.63
2023-03-07T14:35:00.822Z,97176.33
2023-03-07T14:38:21.151Z,97181.29
2023-03-07T14:41:46.185Z,97188.22
2023-03-07T14:45:33.208Z,97187.08
2023-03-07T14:49:17.469Z,97182.14
2023-03-07T14:52:31.878Z,97183.09
2023-03-07T14:55:48.923Z,97177.80
2023-03-07T14:59:04.056Z,97171.71
2023-03-07T15:02:24.311Z,97175.16
2023-03-07T15:05:39.389Z,97167.41
2023-03-07T15:08:52.883Z,97164.73
2023-03-07T15:12:12.632Z,97168.22
2023-03-07T15:15:38.322Z,97167.21
2023-03-07T15:18:55.517Z,97159.63
2023-03-07T15:22:11.764Z,97155.97
2023-03-07T15:25:28.772Z,97157.30
2023-03-07T15:28:44.810Z,97153.69
2023-03-07T15:32:04.154Z,97147.91
2023-03-07T15:35:23.967Z,97156.16
2023-03-07T15:41:41.146Z,97152.38
2023-03-07T15:47:53.290Z,97152.02
2023-03-07T15:51:08.582Z,97153.19
2023-03-07T15:54:32.272Z,97158.27
2023-03-07T15:57:54.441Z,97156.44
2023-03-07T16:01:21.827Z,97145.69
2023-03-07T16:04:44.628Z,97151.11
2023-03-07T16:07:59.959Z,97133.23
2023-03-07T16:11:15.011Z,97154.17
2023-03-07T16:14:32.037Z,97157.44
2023-03-07T16:17:45.641Z,97156.94
2023-03-07T16:20:57.851Z,97154.47
2023-03-07T16:24:10.671Z,97147.86
2023-03-07T16:27:26.002Z,97151.79
2023-03-07T16:30:40.417Z,97144.50
2023-03-07T16:33:54.543Z,97141.53
2023-03-07T16:37:07.340Z,97138.22
2023-03-07T16:40:22.866Z,97135.88
2023-03-07T16:43:43.032Z,97138.02
2023-03-07T16:47:00.411Z,97150.69
2023-03-07T16:50:19.765Z,97152.11
2023-03-07T16:53:31.841Z,97148.00
2023-03-07T16:56:48.313Z,97150.63
2023-03-07T17:00:00.522Z,97148.62
2023-03-07T17:03:15.205Z,97146.27
2023-03-07T17:06:38.515Z,97146.44
2023-03-07T17:09:41.669Z,97156.63
2023-03-07T17:12:55.130Z,97154.61
2023-03-07T17:16:07.273Z,97159.66
2023-03-07T17:19:30.066Z,97155.00
2023-03-07T17:22:42.862Z,97161.45
2023-03-07T17:25:55.604Z,97162.22
2023-03-07T17:29:11.867Z,97162.15
2023-03-07T17:32:24.818Z,97163.59
2023-03-07T17:35:37.026Z,97155.30
2023-03-07T17:38:49.565Z,97153.14
2023-03-07T17:42:01.987Z,97150.63
2023-03-07T17:45:17.541Z,97145.37
2023-03-07T17:48:30.657Z,97142.61
2023-03-07T17:51:42.792Z,97145.92
2023-03-07T17:54:55.312Z,97139.14
2023-03-07T17:58:08.083Z,97154.10
2023-03-07T18:01:20.556Z,97152.14
2023-03-07T18:04:32.946Z,97148.68
2023-03-07T18:07:45.509Z,97132.08
2023-03-07T18:10:57.763Z,97134.55
2023-03-07T18:14:11.514Z,97131.25
2023-03-07T18:17:24.105Z,97135.67
2023-03-07T18:20:36.750Z,97135.83
2023-03-07T18:23:49.294Z,97124.47
2023-03-07T18:27:03.388Z,97127.10
2023-03-07T18:30:19.570Z,97128.77
2023-03-07T18:33:32.433Z,97134.84
2023-03-07T18:36:48.125Z,97123.51
2023-03-07T18:40:00.453Z,97115.06
2023-03-07T18:43:13.102Z,97114.09
2023-03-07T18:46:30.086Z,97120.88
2023-03-07T18:49:42.700Z,97111.31
2023-03-07T18:52:55.018Z,97107.16
2023-03-07T18:56:11.765Z,97109.00
2023-03-07T18:59:24.651Z,97119.36
2023-03-07T19:02:37.210Z,97118.02
2023-03-07T19:05:54.766Z,97111.75
2023-03-07T19:09:07.716Z,97106.48
2023-03-07T19:12:20.206Z,97107.48
2023-03-07T19:15:32.505Z,97112.43
2023-03-07T19:18:45.748Z,97110.47
2023-03-07T19:21:57.961Z,97110.19
2023-03-07T19:25:12.653Z,97108.23
2023-03-07T19:28:25.058Z,97104.61
2023-03-07T19:31:38.755Z,97094.75
2023-03-07T19:34:55.564Z,97091.00
2023-03-07T19:38:07.874Z,97091.95
2023-03-07T19:41:23.278Z,97091.00
2023-03-07T19:44:35.482Z,97097.77
2023-03-07T19:47:47.828Z,97094.14
2023-03-07T19:51:00.776Z,97096.48
2023-03-07T19:54:13.693Z,97085.80
2023-03-07T19:57:25.945Z,97084.96
2023-03-07T20:00:38.166Z,97083.16
2023-03-07T20:03:51.005Z,97090.06
2023-03-07T20:07:03.290Z,97083.16
2023-03-07T20:10:17.838Z,97087.59
2023-03-07T20:13:30.046Z,97084.00
2023-03-07T20:16:42.960Z,97082.33
2023-03-07T20:19:58.330Z,97079.53
2023-03-07T20:23:10.563Z,97086.63
2023-03-07T20:26:26.216Z,97086.47
2023-03-07T20:29:38.531Z,97077.58
2023-03-07T20:32:51.075Z,97069.67
2023-03-07T20:36:12.635Z,97072.30
2023-03-07T20:39:24.952Z,97072.17
2023-03-07T20:42:39.424Z,97072.30
2023-03-07T20:45:51.467Z,97065.69
2023-03-07T20:49:05.477Z,97069.32
2023-03-07T20:52:17.695Z,97065.86
2023-03-07T20:55:29.670Z,97063.22
2023-03-07T20:58:43.063Z,97060.75
2023-03-07T21:01:55.755Z,97066.02
2023-03-07T21:05:08.963Z,97057.28
2023-03-07T21:08:21.008Z,97057.45
2023-03-07T21:11:33.541Z,97058.41
2023-03-07T21:14:46.325Z,97056.61
2023-03-07T21:17:58.514Z,97055.77
2023-03-07T21:21:13.235Z,97053.98
2023-03-07T21:24:25.293Z,97061.04
2023-03-07T21:27:37.641Z,97053.30
2023-03-07T21:30:50.122Z,97056.61
2023-03-07T21:34:05.164Z,97052.18
2023-03-07T21:37:17.538Z,97049.70
2023-03-07T21:40:29.931Z,97040.66
2023-03-07T21:43:42.522Z,97044.13
2023-03-07T21:46:54.658Z,97044.80
2023-03-07T21:50:07.015Z,97039.37
2023-03-07T21:53:19.332Z,97042.16
2023-03-07T21:56:31.536Z,97046.46
2023-03-07T21:59:43.730Z,97042.83
2023-03-07T22:02:55.783Z,97030.28
2023-03-07T22:06:13.460Z,97044.84
2023-03-07T22:09:25.638Z,97047.48
2023-03-07T22:12:37.948Z,97047.32
2023-03-07T22:15:49.958Z,97046.81
2023-03-07T22:19:03.592Z,97047.64
2023-03-07T22:22:15.620Z,97036.28
2023-03-07T22:25:27.855Z,97034.94
2023-03-07T22:28:41.200Z,97027.03
2023-03-07T22:31:53.469Z,97028.84
2023-03-07T22:35:05.651Z,97022.09
2023-03-07T22:38:19.316Z,97031.63
2023-03-07T22:41:32.213Z,97024.73
2023-03-07T22:44:44.493Z,97023.06
2023-03-07T22:47:56.645Z,97018.12
2023-03-07T22:51:09.434Z,97022.22
2023-03-07T22:54:21.640Z,97022.90
2023-03-07T22:57:34.486Z,97027.20
2023-03-07T23:00:48.895Z,97019.14
2023-03-07T23:04:04.021Z,97018.17
2023-03-07T23:07:16.723Z,96996.84
2023-03-07T23:10:28.906Z,97018.17
2023-03-07T23:13:41.596Z,97027.87
2023-03-07T23:16:54.063Z,97018.30
2023-03-07T23:20:06.083Z,97015.83
2023-03-07T23:23:18.396Z,97022.90
2023-03-07T23:26:33.888Z,97023.06
2023-03-07T23:29:46.048Z,97017.50
2023-03-07T23:32:59.995Z,97022.77
2023-03-07T23:36:14.131Z,97027.20
2023-03-07T23:39:26.163Z,97040.52
2023-03-07T23:42:38.541Z,97033.59
2023-03-07T23:45:50.592Z,97033.75
2023-03-07T23:49:03.909Z,97036.95
2023-03-07T23:52:16.447Z,97037.14
2023-03-07T23:55:28.762Z,97034.05
2023-03-07T23:58:42.163Z,97036.86
